KEST/EST METAR and TAF weather

Enter ICAO airport designator
Station Type Date Time Source
KEST METAR 2022/06/30 12:52 UTC NOAA

KEST 301252Z AUTO 21009KT 10SM CLR 24/13 A2984 RMK AO2 SLP093 T02440133


Station Type Date Time Source
KEST Decoded METAR 2022/06/30 12:52 UTC NOAA

ESTHERVILLE MUNICIPAL AIRPORT , IA, United States (KEST) 43-24N 94-45W 401M
Jun 30, 2022 - 08:52 AM EDT / 2022.06.30 1252 UTC
Wind: from the SSW (210 degrees) at 10 MPH (9 KT):0
Visibility: 10 mile(s):0
Sky conditions: clear
Temperature: 75.9 F (24.4 C)
Dew Point: 55.9 F (13.3 C)
Relative Humidity: 49%
Pressure (altimeter): 29.84 in. Hg (1010 hPa)
ob: KEST 301252Z AUTO 21009KT 10SM CLR 24/13 A2984 RMK AO2 SLP093 T02440133
cycle: 13

Station Type Date Time Source
KEST TAF UTC NOAA

Error!

Example: see airport list